createdAt,value
2022-09-12T04:00:19.553Z,100333.00
2022-09-12T04:03:22.201Z,100333.00
2022-09-12T04:06:24.221Z,100342.78
2022-09-12T04:09:26.505Z,100340.09
2022-09-12T04:12:29.625Z,100339.25
2022-09-12T04:15:32.315Z,100330.34
2022-09-12T04:18:35.514Z,100324.63
2022-09-12T04:21:39.402Z,100334.19
2022-09-12T04:24:41.422Z,100325.88
2022-09-12T04:27:43.710Z,100334.34
2022-09-12T04:30:45.764Z,100334.94
2022-09-12T04:34:59.862Z,100319.66
2022-09-12T04:38:02.275Z,100319.66
2022-09-12T04:41:15.878Z,100333.03
2022-09-12T04:44:18.542Z,100338.47
2022-09-12T04:47:20.650Z,100338.91
2022-09-12T04:50:22.937Z,100341.78
2022-09-12T04:53:24.958Z,100341.78
2022-09-12T04:56:28.762Z,100345.94
2022-09-12T04:59:30.797Z,100349.91
2022-09-12T05:02:34.863Z,100355.78
2022-09-12T05:05:37.121Z,100359.31
2022-09-12T05:08:39.421Z,100362.31
2022-09-12T05:15:07.080Z,100365.69
2022-09-12T05:18:09.149Z,100363.91
2022-09-12T05:21:14.414Z,100375.16
2022-09-12T05:24:16.570Z,100374.97
2022-09-12T05:27:20.026Z,100380.22
2022-09-12T05:30:22.203Z,100383.72
2022-09-12T05:33:25.178Z,100385.94
2022-09-12T05:36:29.371Z,100387.34
2022-09-12T05:39:31.734Z,100381.16
2022-09-12T05:42:33.853Z,100389.22
2022-09-12T05:45:36.138Z,100384.56
2022-09-12T05:48:40.327Z,100387.91
2022-09-12T05:51:45.194Z,100386.91
2022-09-12T05:54:48.513Z,100388.81
2022-09-12T05:57:51.318Z,100387.88
2022-09-12T06:00:53.343Z,100385.87
2022-09-12T06:04:00.697Z,100392.03
2022-09-12T06:07:02.779Z,100403.81
2022-09-12T06:10:05.430Z,100398.12
2022-09-12T06:13:08.622Z,100394.81
2022-09-12T06:16:13.077Z,100396.22
2022-09-12T06:19:18.152Z,100407.97
2022-09-12T06:22:21.030Z,100398.44
2022-09-12T06:25:23.121Z,100396.72
2022-09-12T06:28:26.177Z,100408.66
2022-09-12T06:31:31.170Z,100401.34
2022-09-12T06:34:34.012Z,100403.06
2022-09-12T06:37:36.121Z,100407.47
2022-09-12T06:40:46.332Z,100409.06
2022-09-12T06:43:48.595Z,100409.00
2022-09-12T06:46:50.925Z,100406.63
2022-09-12T06:49:52.940Z,100409.72
2022-09-12T06:52:55.803Z,100402.00
2022-09-12T06:56:03.020Z,100407.34
2022-09-12T06:59:05.439Z,100411.38
2022-09-12T07:02:09.082Z,100416.16
2022-09-12T07:05:11.996Z,100412.75
2022-09-12T07:08:15.529Z,100408.72
2022-09-12T07:11:20.700Z,100407.41
2022-09-12T07:14:24.130Z,100405.94
2022-09-12T07:17:27.527Z,100409.09
2022-09-12T07:20:33.140Z,100422.16
2022-09-12T07:23:36.450Z,100407.91
2022-09-12T07:26:40.566Z,100410.56
2022-09-12T07:29:44.235Z,100412.50
2022-09-12T07:32:46.266Z,100414.00
2022-09-12T07:35:48.647Z,100415.69
2022-09-12T07:38:57.606Z,100420.34
2022-09-12T07:42:00.408Z,100425.53
2022-09-12T07:45:02.862Z,100435.16
2022-09-12T07:48:05.144Z,100437.03
2022-09-12T07:51:10.774Z,100430.50
2022-09-12T07:54:13.121Z,100422.50
2022-09-12T07:57:15.695Z,100425.75
2022-09-12T08:00:18.774Z,100431.16
2022-09-12T08:03:21.076Z,100425.06
2022-09-12T08:06:24.367Z,100436.75
2022-09-12T08:09:26.682Z,100432.84
2022-09-12T08:12:29.212Z,100426.31
2022-09-12T08:15:31.571Z,100423.22
2022-09-12T08:18:35.474Z,100423.09
2022-09-12T08:21:37.782Z,100426.28
2022-09-12T08:24:40.147Z,100427.53
2022-09-12T08:27:43.037Z,100415.75
2022-09-12T08:30:45.102Z,100428.22
2022-09-12T08:33:47.596Z,100423.56
2022-09-12T08:36:49.711Z,100422.56
2022-09-12T08:39:52.944Z,100426.50
2022-09-12T08:43:19.337Z,100424.81
2022-09-12T08:47:26.732Z,100421.75
2022-09-12T08:50:29.374Z,100422.94
2022-09-12T08:53:35.965Z,100415.34
2022-09-12T08:56:39.153Z,100417.16
2022-09-12T08:59:44.772Z,100404.78
2022-09-12T09:02:58.067Z,100412.28
2022-09-12T09:06:14.090Z,100413.75
2022-09-12T09:09:15.967Z,100411.00
2022-09-12T09:13:00.765Z,100413.25
2022-09-12T09:16:11.891Z,100405.53
2022-09-12T09:19:26.910Z,100409.38
2022-09-12T09:22:38.384Z,100412.88
2022-09-12T09:25:58.754Z,100408.69
2022-09-12T09:29:14.540Z,100408.69
2022-09-12T09:32:26.818Z,100413.00
2022-09-12T09:35:45.680Z,100417.84
2022-09-12T09:38:55.602Z,100402.47
2022-09-12T09:42:19.278Z,100405.50
2022-09-12T09:45:24.359Z,100410.72
2022-09-12T09:48:38.565Z,100407.94
2022-09-12T09:51:42.586Z,100409.66
2022-09-12T09:54:50.181Z,100404.06
2022-09-12T09:57:53.256Z,100412.00
2022-09-12T10:01:02.776Z,100409.72
2022-09-12T10:04:05.369Z,100414.22
2022-09-12T10:07:18.705Z,100404.81
2022-09-12T10:10:25.528Z,100395.63
2022-09-12T10:13:51.550Z,100410.75
2022-09-12T10:16:53.899Z,100399.75
2022-09-12T10:20:17.315Z,100403.25
2022-09-12T10:23:19.232Z,100415.00
2022-09-12T10:26:21.808Z,100417.19
2022-09-12T10:29:32.084Z,100416.97
2022-09-12T10:32:39.846Z,100425.03
2022-09-12T10:35:46.002Z,100424.16
2022-09-12T10:38:51.033Z,100412.56
2022-09-12T10:41:53.517Z,100418.44
2022-09-12T10:44:57.033Z,100413.09
2022-09-12T10:48:05.522Z,100414.06
2022-09-12T10:51:28.011Z,100396.00
2022-09-12T10:54:30.751Z,100391.38
2022-09-12T10:58:01.713Z,100391.69
2022-09-12T11:01:13.450Z,100386.06
2022-09-12T11:04:24.769Z,100386.13
2022-09-12T11:07:46.074Z,100389.13
2022-09-12T11:10:59.642Z,100396.13
2022-09-12T11:14:46.408Z,100400.06
2022-09-12T11:17:48.349Z,100402.13
2022-09-12T11:21:10.558Z,100400.34
2022-09-12T11:24:23.258Z,100391.38
2022-09-12T11:27:31.672Z,100388.78
2022-09-12T11:30:46.900Z,100389.34
2022-09-12T11:33:54.949Z,100393.81
2022-09-12T11:37:22.159Z,100399.25
2022-09-12T11:40:55.950Z,100402.19
2022-09-12T11:44:21.182Z,100392.78
2022-09-12T11:47:24.253Z,100401.62
2022-09-12T11:50:30.905Z,100403.09
2022-09-12T11:53:38.853Z,100395.91
2022-09-12T11:56:46.250Z,100393.78
2022-09-12T11:59:58.125Z,100386.84
2022-09-12T12:03:08.670Z,100372.37
2022-09-12T12:06:19.381Z,100377.62
2022-09-12T12:09:21.581Z,100381.72
2022-09-12T12:12:27.568Z,100382.44
2022-09-12T12:15:30.830Z,100379.56
2022-09-12T12:18:36.563Z,100372.31
2022-09-12T12:21:47.256Z,100366.88
2022-09-12T12:25:28.883Z,100367.75
2022-09-12T12:28:50.704Z,100356.69
2022-09-12T12:32:02.051Z,100352.41
2022-09-12T12:35:40.441Z,100349.59
2022-09-12T12:38:42.982Z,100357.97
2022-09-12T12:41:45.629Z,100363.31
2022-09-12T12:44:51.381Z,100348.87
2022-09-12T12:47:59.159Z,100351.97
2022-09-12T12:51:29.452Z,100343.38
2022-09-12T12:54:40.510Z,100354.75
2022-09-12T12:57:51.001Z,100362.00
2022-09-12T13:01:13.508Z,100349.66
2022-09-12T13:04:19.671Z,100349.06
2022-09-12T13:07:25.974Z,100347.94
2022-09-12T13:10:30.575Z,100352.84
2022-09-12T13:13:58.037Z,100353.13
2022-09-12T13:17:04.614Z,100351.09
2022-09-12T13:20:27.232Z,100353.84
2022-09-12T13:23:32.636Z,100342.72
2022-09-12T13:26:41.889Z,100342.84
2022-09-12T13:29:44.209Z,100342.66
2022-09-12T13:32:46.264Z,100344.84
2022-09-12T13:36:13.668Z,100333.50
2022-09-12T13:39:27.646Z,100332.09
2022-09-12T13:42:39.505Z,100332.00
2022-09-12T13:45:43.649Z,100326.19
2022-09-12T13:48:46.686Z,100332.00
2022-09-12T13:52:01.776Z,100325.56
2022-09-12T13:55:22.841Z,100331.28
2022-09-12T13:58:35.018Z,100318.28
2022-09-12T14:01:40.463Z,100321.63
2022-09-12T14:05:06.533Z,100326.03
2022-09-12T14:08:11.238Z,100324.38
2022-09-12T14:11:30.861Z,100324.72
2022-09-12T14:14:36.510Z,100329.38
2022-09-12T14:17:39.573Z,100317.69
2022-09-12T14:20:42.695Z,100328.16
2022-09-12T14:23:47.765Z,100324.19
2022-09-12T14:26:54.367Z,100327.19
2022-09-12T14:30:09.089Z,100327.97
2022-09-12T14:33:11.027Z,100322.63
2022-09-12T14:36:34.806Z,100319.28
2022-09-12T14:39:42.849Z,100326.03
2022-09-12T14:42:46.729Z,100318.44
2022-09-12T14:45:59.430Z,100324.63
2022-09-12T14:49:20.864Z,100323.91
2022-09-12T14:52:33.113Z,100311.41
2022-09-12T14:55:44.551Z,100313.88
2022-09-12T14:58:46.778Z,100321.87
2022-09-12T15:01:49.166Z,100313.09
2022-09-12T15:05:16.187Z,100311.00
2022-09-12T15:08:18.488Z,100309.16
2022-09-12T15:11:23.260Z,100309.41
2022-09-12T15:14:25.543Z,100304.56
2022-09-12T15:17:27.561Z,100313.12
2022-09-12T15:20:29.966Z,100307.81
2022-09-12T15:23:42.770Z,100308.78
2022-09-12T15:26:45.158Z,100302.44
2022-09-12T15:29:47.184Z,100295.13
2022-09-12T15:32:49.501Z,100307.81
2022-09-12T15:35:52.542Z,100304.31
2022-09-12T15:38:55.482Z,100304.56
2022-09-12T15:41:57.516Z,100310.88
2022-09-12T15:45:02.566Z,100306.50
2022-09-12T15:48:04.893Z,100309.06
2022-09-12T15:51:18.979Z,100309.69
2022-09-12T15:54:21.412Z,100311.34
2022-09-12T15:57:23.689Z,100301.50
2022-09-12T16:00:26.011Z,100304.06
2022-09-12T16:03:29.398Z,100304.22
2022-09-12T16:06:37.201Z,100299.22
